createdAt,value
2024-01-20T00:00:17.149Z,15.397438
2024-01-20T00:05:17.026Z,15.747198
2024-01-20T00:10:17.249Z,15.651773
2024-01-20T00:15:16.972Z,15.651773
2024-01-20T00:20:17.133Z,15.111646
2024-01-20T00:25:17.054Z,14.567359
2024-01-20T00:30:17.193Z,14.018779
2024-01-20T00:35:17.061Z,14.282043
2024-01-20T00:40:17.131Z,14.540034
2024-01-20T00:45:17.212Z,14.444761
2024-01-20T00:50:17.080Z,14.349488
2024-01-20T00:55:17.129Z,13.354172
2024-01-20T01:00:17.053Z,13.521151
2024-01-20T01:05:17.090Z,14.220274
2024-01-20T01:10:17.116Z,14.467198
2024-01-20T01:15:17.084Z,14.371596
2024-01-20T01:20:17.173Z,14.180388
2024-01-20T01:25:17.129Z,12.499594
2024-01-20T01:30:17.176Z,13.110831
2024-01-20T01:35:17.226Z,13.110831
2024-01-20T01:40:17.312Z,13.361261
2024-01-20T01:45:17.165Z,12.824962
2024-01-20T01:50:17.290Z,11.834857
2024-01-20T01:55:17.663Z,12.883995
2024-01-20T02:00:17.238Z,12.883995
2024-01-20T02:05:17.195Z,12.788539
2024-01-20T02:10:17.262Z,13.128675
2024-01-20T02:15:18.799Z,13.464327
2024-01-20T02:20:17.267Z,12.693081
2024-01-20T02:25:17.283Z,12.841823
2024-01-20T02:30:17.427Z,12.406703
2024-01-20T02:35:17.298Z,11.871992
2024-01-20T02:40:17.271Z,12.985451
2024-01-20T02:45:17.354Z,11.681385
2024-01-20T02:50:17.289Z,11.586080
2024-01-20T02:55:17.371Z,11.142900
2024-01-20T03:00:17.539Z,10.857463
2024-01-20T03:05:17.375Z,11.109538
2024-01-20T03:10:17.397Z,11.014226
2024-01-20T03:15:17.484Z,10.572016
2024-01-20T03:20:17.458Z,10.918914
2024-01-20T03:25:17.388Z,10.823600
2024-01-20T03:30:18.110Z,11.503059
2024-01-20T03:35:17.476Z,10.632969
2024-01-20T03:40:17.535Z,10.096248
2024-01-20T03:45:17.434Z,10.347015
2024-01-20T03:50:15.630Z,10.592753
2024-01-20T03:55:15.495Z,9.905933
2024-01-20T04:00:15.477Z,9.715614
2024-01-20T04:05:15.522Z,9.270341
2024-01-20T04:10:15.558Z,9.620453
2024-01-20T04:15:15.576Z,9.620453
2024-01-20T04:20:15.622Z,9.965727
2024-01-20T04:25:15.512Z,8.535912
2024-01-20T04:30:15.568Z,8.700334
2024-01-20T04:35:15.617Z,8.954291
2024-01-20T04:40:15.611Z,8.415315
2024-01-20T04:45:15.581Z,9.203100
2024-01-20T04:50:15.525Z,9.107766
2024-01-20T04:55:15.514Z,7.777186
2024-01-20T05:00:16.680Z,8.288075
2024-01-20T05:05:16.644Z,7.655213
2024-01-20T05:10:16.697Z,7.465176
2024-01-20T05:15:16.708Z,7.465176
2024-01-20T05:20:16.760Z,7.812173
2024-01-20T05:25:16.720Z,7.621804
2024-01-20T05:30:16.720Z,7.526618
2024-01-20T05:35:16.728Z,7.772986
2024-01-20T05:40:16.733Z,7.582286
2024-01-20T05:45:16.718Z,7.823362
2024-01-20T05:50:16.675Z,7.486934
2024-01-20T05:55:16.704Z,6.609952
2024-01-20T06:00:16.807Z,7.296227
2024-01-20T06:05:16.898Z,7.536823
2024-01-20T06:10:16.911Z,6.669893
2024-01-20T06:15:16.930Z,6.724081
2024-01-20T06:20:16.905Z,6.289097
2024-01-20T06:25:16.805Z,6.963717
2024-01-20T06:30:16.803Z,6.437993
2024-01-20T06:35:16.814Z,6.437993
2024-01-20T06:40:17.441Z,6.772673
2024-01-20T06:45:17.032Z,6.247262
2024-01-20T06:50:16.930Z,6.151895
2024-01-20T06:55:16.912Z,6.486099
2024-01-20T07:00:16.980Z,6.815821
2024-01-20T07:05:17.003Z,6.390572
2024-01-20T07:10:16.888Z,7.045349
2024-01-20T07:15:16.956Z,6.103986
2024-01-20T07:20:16.928Z,6.853670
2024-01-20T07:25:16.865Z,6.661987
2024-01-20T07:30:16.971Z,6.337395
2024-01-20T07:35:17.413Z,6.661987
2024-01-20T07:40:17.105Z,6.757829
2024-01-20T07:45:17.213Z,6.433082
2024-01-20T07:50:16.991Z,6.661987
2024-01-20T07:55:17.016Z,7.078349
2024-01-20T08:00:17.103Z,6.146017
2024-01-20T08:05:17.059Z,6.470301
2024-01-20T08:10:16.966Z,6.982354
2024-01-20T08:15:17.198Z,6.470301
2024-01-20T08:20:17.092Z,6.374456
2024-01-20T08:25:17.142Z,6.374456
2024-01-20T08:30:17.160Z,6.790363
2024-01-20T08:35:17.102Z,6.374456
2024-01-20T08:40:17.209Z,6.694365
2024-01-20T08:45:17.106Z,6.470301
2024-01-20T08:50:17.266Z,7.610868
2024-01-20T08:55:17.325Z,6.982354
2024-01-20T09:00:17.415Z,6.790363
2024-01-20T09:05:17.137Z,7.106318
2024-01-20T09:10:17.515Z,6.790363
2024-01-20T09:15:17.172Z,7.010170
2024-01-20T09:20:17.344Z,6.694365
2024-01-20T09:25:17.282Z,6.914021
2024-01-20T09:30:17.259Z,6.406368
2024-01-20T09:35:17.212Z,6.310366
2024-01-20T09:40:17.133Z,6.433262
2024-01-20T09:45:17.294Z,6.936783
2024-01-20T09:50:17.207Z,6.840482
2024-01-20T09:55:17.347Z,7.147669
2024-01-20T10:00:17.249Z,6.647877
2024-01-20T10:05:17.216Z,6.954770
2024-01-20T10:10:17.254Z,7.847544
2024-01-20T10:15:17.272Z,6.048639
2024-01-20T10:20:17.217Z,6.871499
2024-01-20T10:25:17.230Z,6.166348
2024-01-20T10:30:19.966Z,6.472507
2024-01-20T10:35:17.859Z,6.774900
2024-01-20T10:40:17.326Z,6.871499
2024-01-20T10:45:17.422Z,6.472507
2024-01-20T10:50:17.583Z,7.170367
2024-01-20T10:55:17.430Z,7.170367
2024-01-20T11:00:17.473Z,6.871499
2024-01-20T11:05:17.603Z,6.774900
2024-01-20T11:10:17.440Z,7.073624
2024-01-20T11:15:17.407Z,6.774900
2024-01-20T11:20:17.387Z,6.678300
2024-01-20T11:25:15.403Z,6.485097
2024-01-20T11:30:17.408Z,6.581699
2024-01-20T11:35:15.435Z,6.678300
2024-01-20T11:40:15.632Z,7.267109
2024-01-20T11:45:15.568Z,7.073624
2024-01-20T11:50:15.603Z,7.368773
2024-01-20T11:55:15.460Z,7.562541
2024-01-20T12:00:15.554Z,7.659424
2024-01-20T12:05:18.780Z,7.267109
2024-01-20T12:10:15.570Z,7.562541
2024-01-20T12:15:15.588Z,7.562541
2024-01-20T12:20:15.547Z,7.465657
2024-01-20T12:25:16.216Z,6.976880
2024-01-20T12:30:15.640Z,6.880136
2024-01-20T12:35:15.760Z,6.388495
2024-01-20T12:40:16.168Z,6.783391
2024-01-20T12:45:15.675Z,6.783391
2024-01-20T12:50:15.839Z,6.388495
2024-01-20T12:55:15.655Z,6.388495
2024-01-20T13:00:15.891Z,6.183139
2024-01-20T13:05:15.794Z,6.485097
2024-01-20T13:10:15.711Z,6.279596
2024-01-20T13:15:15.988Z,6.678300
2024-01-20T13:20:15.725Z,6.279596
2024-01-20T13:25:15.971Z,6.376052
2024-01-20T13:30:15.831Z,6.376052
2024-01-20T13:35:15.707Z,6.871499
2024-01-20T13:40:15.991Z,6.262656
2024-01-20T13:45:15.792Z,6.665415
2024-01-20T13:50:15.762Z,6.665415
2024-01-20T13:55:15.846Z,6.761867
2024-01-20T14:00:15.759Z,6.551573
2024-01-20T14:05:15.795Z,6.647877
2024-01-20T14:10:15.866Z,7.147669
2024-01-20T14:15:15.899Z,7.340565
2024-01-20T14:20:15.829Z,7.934038
2024-01-20T14:25:15.855Z,7.225682
2024-01-20T14:30:15.997Z,6.310366
2024-01-20T14:35:15.885Z,6.721720
2024-01-20T14:40:15.959Z,6.817871
2024-01-20T14:45:15.958Z,7.321980
2024-01-20T14:50:15.925Z,6.790363
2024-01-20T14:55:15.943Z,6.470301
2024-01-20T15:00:15.982Z,6.566145
2024-01-20T15:05:15.921Z,7.078349
2024-01-20T15:10:15.943Z,7.270335
2024-01-20T15:15:15.922Z,6.624454
2024-01-20T15:20:18.761Z,7.558307
2024-01-20T15:25:16.075Z,7.654296
2024-01-20T15:30:16.180Z,7.524529
2024-01-20T15:35:15.966Z,7.102865
2024-01-20T15:40:16.117Z,7.524529
2024-01-20T15:45:16.009Z,8.038242
2024-01-20T15:50:16.138Z,7.389899
2024-01-20T15:55:16.017Z,7.620362
2024-01-20T16:00:16.129Z,7.620362
2024-01-20T16:05:16.319Z,7.524529
2024-01-20T16:10:16.287Z,7.620362
2024-01-20T16:15:16.235Z,7.620362
2024-01-20T16:20:16.121Z,7.294222
2024-01-20T16:25:17.575Z,7.294222
2024-01-20T16:30:16.424Z,7.812025
2024-01-20T16:35:16.112Z,7.485576
2024-01-20T16:40:16.141Z,7.907855
2024-01-20T16:45:16.274Z,7.250275
2024-01-20T16:50:16.285Z,7.059237
2024-01-20T16:55:16.262Z,7.250275
2024-01-20T17:00:16.237Z,7.676925
2024-01-20T17:05:16.302Z,8.099513
2024-01-20T17:10:16.151Z,8.291166
2024-01-20T17:15:16.272Z,8.059611
2024-01-20T17:20:16.187Z,7.823362
2024-01-20T17:25:16.251Z,7.823362
2024-01-20T17:30:16.288Z,8.155281
2024-01-20T17:35:16.342Z,8.250949
2024-01-20T17:40:16.335Z,8.633611
2024-01-20T17:45:16.789Z,7.963682
2024-01-20T17:50:16.509Z,8.109892
2024-01-20T17:55:16.262Z,9.477905
2024-01-20T18:00:16.403Z,9.861779
2024-01-20T18:05:16.400Z,8.873925
2024-01-20T18:10:17.125Z,8.535744
2024-01-20T18:15:16.571Z,8.440403
2024-01-20T18:20:16.344Z,8.873925
2024-01-20T18:25:16.355Z,8.726422
2024-01-20T18:30:16.453Z,8.478428
2024-01-20T18:35:16.493Z,9.012432
2024-01-20T18:40:17.086Z,8.763950
2024-01-20T18:45:16.360Z,9.298432
2024-01-20T18:50:16.503Z,9.489093
2024-01-20T18:55:16.543Z,9.679750
2024-01-20T19:00:16.886Z,8.985343
2024-01-20T19:05:16.494Z,9.430126
2024-01-20T19:10:16.432Z,9.525290
2024-01-20T19:15:16.551Z,9.620453
2024-01-20T19:20:16.548Z,9.270341
2024-01-20T19:25:16.474Z,10.061051
2024-01-20T19:30:16.544Z,9.270341
2024-01-20T19:35:16.548Z,9.620453
2024-01-20T19:40:16.736Z,9.620453
2024-01-20T19:45:16.638Z,9.270341
2024-01-20T19:50:16.641Z,8.365688
2024-01-20T19:55:16.608Z,9.525290
2024-01-20T20:00:16.678Z,9.175343
2024-01-20T20:05:16.873Z,9.525290
2024-01-20T20:10:16.653Z,9.620453
2024-01-20T20:15:16.722Z,9.270341
2024-01-20T20:20:16.621Z,9.270341
2024-01-20T20:25:16.662Z,9.715614
2024-01-20T20:30:16.509Z,9.715614
2024-01-20T20:35:16.689Z,10.642321
2024-01-20T20:40:16.796Z,10.115335
2024-01-20T20:45:16.734Z,10.164097
2024-01-20T20:50:16.757Z,10.399095
2024-01-20T20:55:16.793Z,10.533522
2024-01-20T21:00:17.213Z,11.076912
2024-01-20T21:05:16.792Z,10.470926
2024-01-20T21:10:16.861Z,10.595585
2024-01-20T21:15:16.829Z,10.210507
2024-01-20T21:20:16.863Z,10.330019
2024-01-20T21:25:16.862Z,10.445104
2024-01-20T21:30:16.929Z,10.749301
2024-01-20T21:35:16.921Z,10.348535
2024-01-20T21:40:16.770Z,10.749301
2024-01-20T21:45:16.879Z,10.942727
2024-01-20T21:50:16.887Z,10.541673
2024-01-20T21:55:16.827Z,10.137175
2024-01-20T22:00:16.874Z,10.137175
2024-01-20T22:05:16.891Z,10.541673
2024-01-20T22:10:17.000Z,10.445104
2024-01-20T22:15:17.066Z,10.846014
2024-01-20T22:20:16.904Z,10.846014
2024-01-20T22:25:16.927Z,9.847904
2024-01-20T22:30:17.019Z,10.265723
2024-01-20T22:35:16.931Z,9.769101
2024-01-20T22:40:16.981Z,10.371847
2024-01-20T22:45:17.716Z,10.081258
2024-01-20T22:50:17.030Z,9.984393
2024-01-20T22:55:16.991Z,9.984393
2024-01-20T23:00:17.051Z,10.960452
2024-01-20T23:05:17.574Z,11.152388
2024-01-20T23:10:17.039Z,11.340770
2024-01-20T23:15:17.282Z,11.428124
2024-01-20T23:20:17.056Z,11.804885
2024-01-20T23:25:16.975Z,11.330569
2024-01-20T23:30:17.181Z,11.048510
2024-01-20T23:35:17.164Z,10.763257
2024-01-20T23:40:17.047Z,10.957824
2024-01-20T23:45:17.942Z,10.957824
2024-01-20T23:50:17.177Z,10.669021
2024-01-20T23:55:17.145Z,10.571876
